• Join FlightAware (Why Join?)
  • Login
  • US Flag 
09:17AM EDT


 

Airport Tracker/Info


-or-


 

Live Flight TrackerFlight Track Log ✈ EJA258 ✈ 21-Jul-2013 ✈ KHPN - KILG

Flight Track Log - Related Links

Times and Time Zones

All times are in EDT time to prevent confusion due to time zone crossing. See the EJA258 flight status page for this flight to view local times or setup timezone preferences in your user account.

Time Position Orientation Groundspeed Altitude Reporting Facility
EDT Latitude Longitude Course Direction KTS MPH feet Rate Location/Type
06:37PM 41.0333 -73.7333 270° West 210 242 3,000  Level New York TRACON
06:38PM 41.0667 -73.8000 304° West 218 251 4,200 2,100 Climbing New York TRACON
06:39PM 41.1167 -73.8833 309° West 247 284 7,400 1,860 Climbing New York TRACON
06:40PM 41.1000 -73.9667 255° West 263 303 8,000 300 Climbing New York TRACON
06:41PM 41.1000 -74.0667 270° West 274 315 8,100  Climbing New York TRACON
06:42PM 41.0670 -74.3531 270° West  Level FlightAware Approximate
06:42PM 41.0833 -74.1833 259° West 279 321 8,000  Level New York TRACON
06:43PM 41.0833 -74.2833 270° West 279 321 8,000  Level New York TRACON
06:44PM 41.0833 -74.3833 270° West 271 312 8,000  Level New York TRACON
06:45PM 41.0500 -74.4667 242° Southwest 277 319 8,000  Level New York TRACON
06:46PM 40.9833 -74.5333 217° Southwest 275 316 8,000  Level New York TRACON
06:47PM 40.9333 -74.6000 225° Southwest 275 316 8,000  Level New York TRACON
06:48PM 40.8667 -74.6667 217° Southwest 272 313 8,000  Level New York TRACON
06:49PM 40.8167 -74.7333 225° Southwest 275 316 8,000  Level New York TRACON
06:51PM 40.6930 -74.7333 180° South  Level FlightAware Approximate
06:53PM 40.6333 -75.0833 273° West 270 311 8,000  Level Philadelphia TRACON
06:54PM 40.6000 -75.1667 242° Southwest 271 312 7,500 -540 Descending Philadelphia TRACON
06:55PM 40.5667 -75.2667 246° West 277 319 7,000 -180 Descending Philadelphia TRACON
06:57PM 40.4740 -75.3026 196° South  Level Estimated
06:57PM 40.5167 -75.4500 196° South 272 313 7,000  Level Philadelphia TRACON
06:58PM 40.5379 -75.2151 281° West  Level FlightAware Approximate
06:59PM 40.5503 -75.3067 273° West  Level FlightAware Approximate
06:59PM 40.3833 -75.5167 201° Southwest 278 320 7,000  Level Philadelphia TRACON
07:00PM 40.3000 -75.5500 197° South 280 322 7,000  Level Philadelphia TRACON
07:01PM 40.2167 -75.5667 189° South 275 316 7,000  Level Philadelphia TRACON
07:02PM 40.1667 -75.5833 189° South 276 318 7,000  Level Philadelphia TRACON
07:03PM 40.1133 -75.5667 180° South  Level FlightAware Approximate
07:03PM 40.0833 -75.6167 197° South 277 319 7,000  Level Philadelphia TRACON
07:04PM 39.9992 -75.4850 196° South  Level Estimated
07:04PM 40.0167 -75.6667 210° Southwest 279 321 6,000  Level Philadelphia TRACON
07:05PM 39.9500 -75.7333 217° Southwest 273 314 4,600 -1,020 Descending Philadelphia TRACON
07:06PM 39.9000 -75.7833 218° Southwest 273 314 4,000 -360 Descending Philadelphia TRACON
07:07PM 39.8333 -75.8500 218° Southwest 268 308 4,000 -120 Level Philadelphia TRACON
07:08PM 39.7667 -75.8667 191° South 260 299 3,800 -540 Descending Philadelphia TRACON
07:09PM 39.7000 -75.8500 169° South 261 300 3,000 -600 Descending Philadelphia TRACON
07:10PM 39.6787 -75.6066 189° South  Level Estimated
07:10PM 39.6500 -75.8000 142° Southeast 237 273 2,700  Level Philadelphia TRACON
07:11PM 39.6333 -75.7167 105° East 210 242 1,700 -840 Descending Philadelphia TRACON
07:12PM 39.6333 -75.6500 90° East 182 209 1,000 -660 Descending Philadelphia TRACON
07:13PM 39.6500 -75.6167 57° Northeast 140 161 500 -600 Descending Philadelphia TRACON
07:15PM 39.6667 -75.6000 116° Southeast  Level FlightAware Approximate